LBT432 DTMB-EPKT
Flight info
| Callsign | LBT432 |
|---|---|
| Flight time | 2h 27m |
| Altitude | 38000 |
| Route | SORAB1A SORAB UM735 BABLO DCT MEGAN DCT GIANO DCT TORPO/N0463F390 DCT LAPNA DCT LEDVA DCT KATQA DCT BAVOK |
| Aircraft | A20N/M-SDE2E3FGHIRWXY/LB1 |
Departure
| Time | 2026-04-30 19:19 |
|---|---|
| Airport | Monastir Habib Bourguiba International Airport (DTMB) |
Arrival
| Time | 2026-04-30 21:46 |
|---|---|
| Airport | Katowice Wojciech Korfanty International Airport (EPKT) |
| Time | Latitude | Longitude | Altitude | Speed | Heading |
|---|---|---|---|---|---|
| 2026-04-30 18:46 | 35.75985 | 10.75328 | 10 ft | 0 kts | 343° |
| 2026-04-30 19:10 | 35.75938 | 10.75352 | 10 ft | 4 kts | 322° |
| 2026-04-30 19:10 | 35.75923 | 10.75381 | 10 ft | 1 kts | 253° |
| 2026-04-30 19:12 | 35.75921 | 10.75374 | 10 ft | 4 kts | 254° |
| 2026-04-30 19:12 | 35.75903 | 10.75296 | 11 ft | 16 kts | 255° |
| 2026-04-30 19:13 | 35.75838 | 10.74874 | 10 ft | 17 kts | 239° |
| 2026-04-30 19:13 | 35.75796 | 10.74739 | 10 ft | 18 kts | 253° |
| 2026-04-30 19:13 | 35.75756 | 10.74580 | 10 ft | 21 kts | 253° |
| 2026-04-30 19:14 | 35.75713 | 10.74400 | 9 ft | 23 kts | 253° |
| 2026-04-30 19:14 | 35.75666 | 10.74208 | 10 ft | 24 kts | 253° |
| 2026-04-30 19:14 | 35.75619 | 10.74005 | 11 ft | 25 kts | 254° |
| 2026-04-30 19:14 | 35.75584 | 10.73854 | 10 ft | 0 kts | 254° |
| 2026-04-30 19:15 | 35.75583 | 10.73850 | 10 ft | 2 kts | 254° |
| 2026-04-30 19:15 | 35.75571 | 10.73825 | 10 ft | 5 kts | 231° |
| 2026-04-30 19:16 | 35.75535 | 10.73811 | 10 ft | 7 kts | 184° |
| 2026-04-30 19:16 | 35.75508 | 10.73816 | 10 ft | 0 kts | 160° |
| 2026-04-30 19:17 | 35.75465 | 10.73836 | 12 ft | 9 kts | 154° |
| 2026-04-30 19:17 | 35.75434 | 10.73935 | 11 ft | 18 kts | 76° |
| 2026-04-30 19:18 | 35.75603 | 10.74628 | 11 ft | 101 kts | 73° |
| 2026-04-30 19:18 | 35.75952 | 10.76095 | 51 ft | 159 kts | 73° |
| 2026-04-30 19:18 | 35.76293 | 10.77408 | 534 ft | 158 kts | 62° |
| 2026-04-30 19:19 | 35.76859 | 10.78502 | 1255 ft | 148 kts | 52° |
| 2026-04-30 19:19 | 35.77491 | 10.79510 | 1785 ft | 151 kts | 51° |
| 2026-04-30 19:19 | 35.78879 | 10.81867 | 2507 ft | 188 kts | 57° |
| 2026-04-30 19:20 | 35.79618 | 10.83269 | 3007 ft | 201 kts | 58° |
| 2026-04-30 19:20 | 35.80371 | 10.84763 | 3548 ft | 214 kts | 58° |
| 2026-04-30 19:20 | 35.82066 | 10.88182 | 4562 ft | 251 kts | 58° |
| 2026-04-30 19:21 | 35.83014 | 10.90100 | 5059 ft | 270 kts | 57° |
| 2026-04-30 19:21 | 35.85003 | 10.94122 | 6729 ft | 281 kts | 57° |
| 2026-04-30 19:22 | 35.87059 | 10.98282 | 8351 ft | 290 kts | 57° |
| 2026-04-30 19:22 | 35.90292 | 11.04825 | 10441 ft | 313 kts | 56° |
| 2026-04-30 19:23 | 35.94010 | 11.12334 | 11789 ft | 356 kts | 56° |
| 2026-04-30 19:24 | 35.96617 | 11.17625 | 13285 ft | 365 kts | 56° |
| 2026-04-30 19:24 | 35.97944 | 11.20317 | 13983 ft | 370 kts | 56° |
| 2026-04-30 19:24 | 36.00655 | 11.25815 | 15362 ft | 379 kts | 56° |
| 2026-04-30 19:25 | 36.05511 | 11.33512 | 17269 ft | 380 kts | 28° |
| 2026-04-30 19:26 | 36.10483 | 11.35401 | 18488 ft | 376 kts | 4° |
| 2026-04-30 19:26 | 36.15720 | 11.36173 | 19674 ft | 383 kts | 3° |
| 2026-04-30 19:26 | 36.18374 | 11.36607 | 20278 ft | 386 kts | 4° |
| 2026-04-30 19:27 | 36.23745 | 11.37620 | 21390 ft | 394 kts | 5° |
| 2026-04-30 19:27 | 36.29202 | 11.38731 | 22441 ft | 401 kts | 5° |
| 2026-04-30 19:28 | 36.31025 | 11.39106 | 22790 ft | 402 kts | 5° |
| 2026-04-30 19:28 | 36.36588 | 11.40252 | 23780 ft | 409 kts | 5° |
| 2026-04-30 19:29 | 36.42240 | 11.41413 | 24739 ft | 414 kts | 5° |
| 2026-04-30 19:29 | 36.45106 | 11.42001 | 25194 ft | 417 kts | 5° |
| 2026-04-30 19:30 | 36.53797 | 11.43784 | 26453 ft | 426 kts | 5° |
| 2026-04-30 19:30 | 36.59663 | 11.44987 | 27217 ft | 431 kts | 5° |
| 2026-04-30 19:31 | 36.65630 | 11.46212 | 27926 ft | 437 kts | 5° |
| 2026-04-30 19:31 | 36.68630 | 11.46828 | 28275 ft | 439 kts | 5° |
| 2026-04-30 19:31 | 36.74698 | 11.48074 | 28914 ft | 444 kts | 5° |
| 2026-04-30 19:32 | 36.77744 | 11.48700 | 29238 ft | 445 kts | 5° |
| 2026-04-30 19:32 | 36.80808 | 11.49388 | 29543 ft | 450 kts | 8° |
| 2026-04-30 19:32 | 36.83841 | 11.50476 | 29836 ft | 457 kts | 15° |
| 2026-04-30 19:32 | 36.86802 | 11.52019 | 30094 ft | 465 kts | 22° |
| 2026-04-30 19:33 | 36.89623 | 11.53953 | 30362 ft | 471 kts | 25° |
| 2026-04-30 19:33 | 36.92463 | 11.56016 | 30658 ft | 472 kts | 26° |
| 2026-04-30 19:33 | 36.95324 | 11.58085 | 30965 ft | 474 kts | 25° |
| 2026-04-30 19:33 | 36.98187 | 11.60136 | 31293 ft | 474 kts | 25° |
| 2026-04-30 19:34 | 37.01044 | 11.62165 | 31654 ft | 473 kts | 24° |
| 2026-04-30 19:34 | 37.03910 | 11.64190 | 32026 ft | 472 kts | 24° |
| 2026-04-30 19:34 | 37.09632 | 11.68224 | 32749 ft | 470 kts | 24° |
| 2026-04-30 19:35 | 37.12481 | 11.70235 | 33100 ft | 469 kts | 24° |
| 2026-04-30 19:35 | 37.15314 | 11.72237 | 33416 ft | 468 kts | 24° |
| 2026-04-30 19:35 | 37.18157 | 11.74248 | 33715 ft | 468 kts | 24° |
| 2026-04-30 19:35 | 37.20984 | 11.76251 | 34006 ft | 467 kts | 24° |
| 2026-04-30 19:36 | 37.23816 | 11.78260 | 34290 ft | 467 kts | 23° |
| 2026-04-30 19:36 | 37.26643 | 11.80267 | 34575 ft | 466 kts | 23° |
| 2026-04-30 19:36 | 37.32241 | 11.84249 | 35083 ft | 465 kts | 23° |
| 2026-04-30 19:37 | 37.35059 | 11.86256 | 35328 ft | 465 kts | 23° |
| 2026-04-30 19:37 | 37.37882 | 11.88269 | 35597 ft | 464 kts | 23° |
| 2026-04-30 19:37 | 37.40679 | 11.90266 | 35844 ft | 463 kts | 23° |
| 2026-04-30 19:37 | 37.43482 | 11.92268 | 36067 ft | 463 kts | 23° |
| 2026-04-30 19:38 | 37.46283 | 11.94270 | 36279 ft | 462 kts | 23° |
| 2026-04-30 19:38 | 37.49083 | 11.96273 | 36459 ft | 463 kts | 22° |
| 2026-04-30 19:38 | 37.51895 | 11.98245 | 36652 ft | 460 kts | 19° |
| 2026-04-30 19:38 | 37.54783 | 11.99857 | 36942 ft | 450 kts | 13° |
| 2026-04-30 19:39 | 37.57738 | 12.01036 | 37205 ft | 441 kts | 7° |
| 2026-04-30 19:39 | 37.60704 | 12.01998 | 37438 ft | 438 kts | 6° |
| 2026-04-30 19:39 | 37.63645 | 12.02944 | 37685 ft | 436 kts | 6° |
| 2026-04-30 19:39 | 37.66584 | 12.03900 | 37854 ft | 435 kts | 6° |
| 2026-04-30 19:40 | 37.69492 | 12.04855 | 37978 ft | 436 kts | 7° |
| 2026-04-30 19:40 | 37.72422 | 12.05826 | 38033 ft | 436 kts | 7° |
| 2026-04-30 19:40 | 37.78296 | 12.07788 | 38028 ft | 435 kts | 7° |
| 2026-04-30 19:41 | 37.84157 | 12.09755 | 38029 ft | 435 kts | 7° |
| 2026-04-30 19:41 | 37.89961 | 12.11704 | 38024 ft | 435 kts | 7° |
| 2026-04-30 19:42 | 37.95813 | 12.13672 | 38026 ft | 435 kts | 7° |
| 2026-04-30 19:42 | 38.01676 | 12.15647 | 38028 ft | 435 kts | 7° |
| 2026-04-30 19:43 | 38.07538 | 12.17626 | 38027 ft | 435 kts | 7° |
| 2026-04-30 19:44 | 38.16304 | 12.20590 | 38027 ft | 436 kts | 7° |
| 2026-04-30 19:44 | 38.22168 | 12.22577 | 38028 ft | 436 kts | 7° |
| 2026-04-30 19:45 | 38.28024 | 12.24565 | 38033 ft | 436 kts | 7° |
| 2026-04-30 19:45 | 38.33896 | 12.26563 | 38035 ft | 435 kts | 7° |
| 2026-04-30 19:46 | 38.39757 | 12.28559 | 38033 ft | 435 kts | 7° |
| 2026-04-30 19:46 | 38.45603 | 12.30555 | 38038 ft | 435 kts | 7° |
| 2026-04-30 19:47 | 38.51414 | 12.32542 | 38038 ft | 435 kts | 7° |
| 2026-04-30 19:47 | 38.57259 | 12.34543 | 38041 ft | 434 kts | 7° |
| 2026-04-30 19:48 | 38.63097 | 12.36547 | 38038 ft | 434 kts | 7° |
| 2026-04-30 19:48 | 38.68919 | 12.38548 | 38038 ft | 433 kts | 6° |
| 2026-04-30 19:49 | 38.74745 | 12.40554 | 38040 ft | 433 kts | 6° |
| 2026-04-30 19:49 | 38.83459 | 12.43559 | 38044 ft | 432 kts | 6° |
| 2026-04-30 19:50 | 38.89225 | 12.45578 | 38057 ft | 432 kts | 8° |
| 2026-04-30 19:50 | 38.94989 | 12.47837 | 38055 ft | 434 kts | 8° |
| 2026-04-30 19:51 | 39.00757 | 12.50141 | 38055 ft | 433 kts | 8° |
| 2026-04-30 19:51 | 39.06529 | 12.52423 | 38045 ft | 433 kts | 8° |
| 2026-04-30 19:52 | 39.12290 | 12.54692 | 38052 ft | 433 kts | 8° |
| 2026-04-30 19:52 | 39.18060 | 12.56969 | 38053 ft | 433 kts | 8° |
| 2026-04-30 19:53 | 39.23821 | 12.59245 | 38052 ft | 433 kts | 8° |
| 2026-04-30 19:53 | 39.29580 | 12.61524 | 38053 ft | 433 kts | 8° |
| 2026-04-30 19:54 | 39.35348 | 12.63813 | 38060 ft | 433 kts | 8° |
| 2026-04-30 19:54 | 39.41076 | 12.66087 | 38061 ft | 433 kts | 8° |
| 2026-04-30 19:55 | 39.46833 | 12.68378 | 38062 ft | 433 kts | 8° |
| 2026-04-30 19:55 | 39.52600 | 12.70677 | 38061 ft | 433 kts | 8° |
| 2026-04-30 19:56 | 39.58356 | 12.72975 | 38069 ft | 433 kts | 8° |
| 2026-04-30 19:56 | 39.64122 | 12.75279 | 38070 ft | 433 kts | 8° |
| 2026-04-30 19:57 | 39.69881 | 12.77584 | 38073 ft | 433 kts | 8° |
| 2026-04-30 19:57 | 39.75652 | 12.79901 | 38088 ft | 433 kts | 8° |
| 2026-04-30 19:58 | 39.81375 | 12.82201 | 38083 ft | 433 kts | 8° |
| 2026-04-30 19:58 | 39.87136 | 12.84519 | 38083 ft | 433 kts | 8° |
| 2026-04-30 19:59 | 39.92891 | 12.86841 | 38098 ft | 433 kts | 8° |
| 2026-04-30 20:00 | 40.01518 | 12.90329 | 38093 ft | 433 kts | 8° |
| 2026-04-30 20:00 | 40.07269 | 12.92657 | 38110 ft | 432 kts | 8° |
| 2026-04-30 20:01 | 40.15880 | 12.96151 | 38108 ft | 432 kts | 8° |
| 2026-04-30 20:01 | 40.21586 | 12.98471 | 38112 ft | 432 kts | 8° |
| 2026-04-30 20:02 | 40.30189 | 13.01979 | 38117 ft | 431 kts | 8° |
| 2026-04-30 20:03 | 40.38802 | 13.05499 | 38123 ft | 431 kts | 9° |
| 2026-04-30 20:03 | 40.44539 | 13.07850 | 38123 ft | 431 kts | 9° |
| 2026-04-30 20:04 | 40.50277 | 13.10205 | 38130 ft | 431 kts | 9° |
| 2026-04-30 20:05 | 40.58840 | 13.13728 | 38132 ft | 432 kts | 9° |
| 2026-04-30 20:05 | 40.67446 | 13.17278 | 38132 ft | 432 kts | 9° |
| 2026-04-30 20:06 | 40.73193 | 13.19653 | 38146 ft | 432 kts | 9° |
| 2026-04-30 20:06 | 40.78939 | 13.22032 | 38146 ft | 433 kts | 9° |
| 2026-04-30 20:07 | 40.84684 | 13.24416 | 38146 ft | 433 kts | 9° |
| 2026-04-30 20:08 | 40.93190 | 13.27953 | 38147 ft | 433 kts | 9° |
| 2026-04-30 20:08 | 40.98916 | 13.30340 | 38148 ft | 433 kts | 9° |
| 2026-04-30 20:09 | 41.04671 | 13.32743 | 38152 ft | 433 kts | 9° |
| 2026-04-30 20:09 | 41.13297 | 13.36354 | 38166 ft | 433 kts | 10° |
| 2026-04-30 20:10 | 41.21911 | 13.39968 | 38171 ft | 433 kts | 10° |
| 2026-04-30 20:11 | 41.30519 | 13.43592 | 38168 ft | 433 kts | 10° |
| 2026-04-30 20:11 | 41.36270 | 13.46017 | 38166 ft | 433 kts | 10° |
| 2026-04-30 20:12 | 41.43937 | 13.49258 | 38165 ft | 433 kts | 10° |
| 2026-04-30 20:13 | 41.49684 | 13.51696 | 38166 ft | 433 kts | 10° |
| 2026-04-30 20:13 | 41.55416 | 13.54129 | 38167 ft | 433 kts | 10° |
| 2026-04-30 20:14 | 41.61162 | 13.56574 | 38162 ft | 433 kts | 10° |
| 2026-04-30 20:14 | 41.66899 | 13.59018 | 38161 ft | 433 kts | 10° |
| 2026-04-30 20:15 | 41.72643 | 13.61469 | 38161 ft | 433 kts | 11° |
| 2026-04-30 20:15 | 41.78356 | 13.63912 | 38164 ft | 433 kts | 11° |
| 2026-04-30 20:16 | 41.84084 | 13.66368 | 38165 ft | 432 kts | 11° |
| 2026-04-30 20:16 | 41.89858 | 13.68848 | 38173 ft | 432 kts | 11° |
| 2026-04-30 20:17 | 41.95551 | 13.71295 | 38180 ft | 433 kts | 11° |
| 2026-04-30 20:17 | 42.01297 | 13.73771 | 38195 ft | 433 kts | 11° |
| 2026-04-30 20:18 | 42.07037 | 13.76248 | 38216 ft | 434 kts | 11° |
| 2026-04-30 20:18 | 42.12794 | 13.78740 | 38221 ft | 434 kts | 11° |
| 2026-04-30 20:19 | 42.18531 | 13.81225 | 38234 ft | 433 kts | 11° |
| 2026-04-30 20:19 | 42.24263 | 13.83713 | 38237 ft | 432 kts | 11° |
| 2026-04-30 20:20 | 42.29954 | 13.86190 | 38250 ft | 433 kts | 11° |
| 2026-04-30 20:20 | 42.35684 | 13.88689 | 38256 ft | 432 kts | 11° |
| 2026-04-30 20:21 | 42.41412 | 13.91190 | 38268 ft | 432 kts | 11° |
| 2026-04-30 20:21 | 42.47134 | 13.93693 | 38273 ft | 432 kts | 11° |
| 2026-04-30 20:22 | 42.52859 | 13.96202 | 38282 ft | 432 kts | 12° |
| 2026-04-30 20:22 | 42.58586 | 13.98717 | 38285 ft | 433 kts | 12° |
| 2026-04-30 20:23 | 42.64319 | 14.01241 | 38291 ft | 433 kts | 12° |
| 2026-04-30 20:23 | 42.70057 | 14.03770 | 38281 ft | 433 kts | 12° |
| 2026-04-30 20:24 | 42.75792 | 14.06303 | 38283 ft | 433 kts | 12° |
| 2026-04-30 20:24 | 42.81527 | 14.08841 | 38285 ft | 433 kts | 12° |
| 2026-04-30 20:25 | 42.90127 | 14.12655 | 38270 ft | 433 kts | 12° |
| 2026-04-30 20:26 | 42.98715 | 14.16475 | 38267 ft | 432 kts | 13° |
| 2026-04-30 20:26 | 43.07238 | 14.20276 | 38277 ft | 431 kts | 13° |
| 2026-04-30 20:27 | 43.18677 | 14.25397 | 38280 ft | 430 kts | 13° |
| 2026-04-30 20:28 | 43.30040 | 14.30507 | 38280 ft | 429 kts | 13° |
| 2026-04-30 20:30 | 43.44175 | 14.36889 | 38277 ft | 428 kts | 14° |
| 2026-04-30 20:31 | 43.61209 | 14.44338 | 38279 ft | 425 kts | 10° |
| 2026-04-30 20:32 | 43.75523 | 14.49198 | 38318 ft | 426 kts | 10° |
| 2026-04-30 20:33 | 43.78398 | 14.50205 | 38452 ft | 426 kts | 10° |
| 2026-04-30 20:33 | 43.84155 | 14.52230 | 38705 ft | 427 kts | 10° |
| 2026-04-30 20:33 | 43.86963 | 14.53221 | 38839 ft | 427 kts | 10° |
| 2026-04-30 20:34 | 43.92721 | 14.55255 | 39064 ft | 427 kts | 10° |
| 2026-04-30 20:34 | 43.98487 | 14.57296 | 39254 ft | 428 kts | 10° |
| 2026-04-30 20:35 | 44.01379 | 14.58322 | 39277 ft | 428 kts | 11° |
| 2026-04-30 20:35 | 44.09995 | 14.61377 | 39278 ft | 425 kts | 11° |
| 2026-04-30 20:36 | 44.15706 | 14.63408 | 39284 ft | 426 kts | 11° |
| 2026-04-30 20:37 | 44.24326 | 14.66489 | 39284 ft | 426 kts | 11° |
| 2026-04-30 20:37 | 44.30073 | 14.68548 | 39309 ft | 426 kts | 11° |
| 2026-04-30 20:38 | 44.35813 | 14.70608 | 39312 ft | 426 kts | 11° |
| 2026-04-30 20:38 | 44.41555 | 14.72672 | 39312 ft | 426 kts | 11° |
| 2026-04-30 20:39 | 44.50185 | 14.75783 | 39322 ft | 426 kts | 11° |
| 2026-04-30 20:40 | 44.58806 | 14.78901 | 39323 ft | 426 kts | 11° |
| 2026-04-30 20:40 | 44.64519 | 14.80974 | 39331 ft | 426 kts | 11° |
| 2026-04-30 20:41 | 44.73140 | 14.84108 | 39335 ft | 427 kts | 11° |
| 2026-04-30 20:41 | 44.78897 | 14.86206 | 39344 ft | 427 kts | 12° |
| 2026-04-30 20:42 | 44.84656 | 14.88309 | 39342 ft | 427 kts | 12° |
| 2026-04-30 20:43 | 44.93175 | 14.91429 | 39345 ft | 427 kts | 12° |
| 2026-04-30 20:43 | 44.98925 | 14.93542 | 39346 ft | 427 kts | 12° |
| 2026-04-30 20:44 | 45.06589 | 14.96361 | 39345 ft | 427 kts | 12° |
| 2026-04-30 20:45 | 45.19045 | 15.00963 | 39351 ft | 427 kts | 12° |
| 2026-04-30 20:45 | 45.24780 | 15.03090 | 39352 ft | 426 kts | 12° |
| 2026-04-30 20:46 | 45.36249 | 15.07351 | 39355 ft | 425 kts | 12° |
| 2026-04-30 20:47 | 45.44827 | 15.10556 | 39364 ft | 425 kts | 12° |
| 2026-04-30 20:48 | 45.53367 | 15.13754 | 39363 ft | 425 kts | 13° |
| 2026-04-30 20:48 | 45.59090 | 15.15905 | 39370 ft | 425 kts | 13° |
| 2026-04-30 20:49 | 45.64810 | 15.18059 | 39370 ft | 425 kts | 13° |
| 2026-04-30 20:50 | 45.72469 | 15.20946 | 39380 ft | 425 kts | 13° |
| 2026-04-30 20:50 | 45.78173 | 15.23102 | 39393 ft | 425 kts | 13° |
| 2026-04-30 20:51 | 45.83931 | 15.25282 | 39390 ft | 426 kts | 13° |
| 2026-04-30 20:51 | 45.92618 | 15.28579 | 39396 ft | 426 kts | 13° |
| 2026-04-30 20:52 | 45.97901 | 15.30591 | 39398 ft | 426 kts | 13° |
| 2026-04-30 20:53 | 46.06393 | 15.33831 | 39397 ft | 425 kts | 13° |
| 2026-04-30 20:53 | 46.12141 | 15.36028 | 39396 ft | 425 kts | 14° |
| 2026-04-30 20:54 | 46.20673 | 15.39300 | 39392 ft | 425 kts | 14° |
| 2026-04-30 20:55 | 46.29257 | 15.42609 | 39395 ft | 425 kts | 14° |
| 2026-04-30 20:55 | 46.34978 | 15.44819 | 39395 ft | 425 kts | 14° |
| 2026-04-30 20:56 | 46.43552 | 15.48138 | 39404 ft | 425 kts | 14° |
| 2026-04-30 20:57 | 46.52091 | 15.51458 | 39406 ft | 425 kts | 15° |
| 2026-04-30 20:57 | 46.57626 | 15.54285 | 39409 ft | 426 kts | 20° |
| 2026-04-30 20:58 | 46.65936 | 15.58929 | 39410 ft | 426 kts | 20° |
| 2026-04-30 20:58 | 46.71346 | 15.61935 | 39411 ft | 426 kts | 20° |
| 2026-04-30 20:59 | 46.79649 | 15.66563 | 39413 ft | 426 kts | 20° |
| 2026-04-30 21:00 | 46.90679 | 15.72734 | 39403 ft | 422 kts | 20° |
| 2026-04-30 21:01 | 46.98915 | 15.77360 | 39403 ft | 423 kts | 20° |
| 2026-04-30 21:02 | 47.07049 | 15.81944 | 39396 ft | 422 kts | 21° |
| 2026-04-30 21:02 | 47.12540 | 15.85044 | 39397 ft | 422 kts | 21° |
| 2026-04-30 21:03 | 47.18021 | 15.88148 | 39398 ft | 422 kts | 21° |
| 2026-04-30 21:03 | 47.23503 | 15.91260 | 39398 ft | 422 kts | 21° |
| 2026-04-30 21:04 | 47.28978 | 15.94377 | 39404 ft | 422 kts | 21° |
| 2026-04-30 21:04 | 47.37156 | 15.99043 | 39403 ft | 421 kts | 21° |
| 2026-04-30 21:05 | 47.42602 | 16.02160 | 39396 ft | 420 kts | 21° |
| 2026-04-30 21:05 | 47.48064 | 16.05293 | 39395 ft | 420 kts | 22° |
| 2026-04-30 21:06 | 47.53501 | 16.08418 | 39392 ft | 419 kts | 22° |
| 2026-04-30 21:06 | 47.58903 | 16.11533 | 39395 ft | 419 kts | 22° |
| 2026-04-30 21:07 | 47.64339 | 16.14677 | 39400 ft | 419 kts | 22° |
| 2026-04-30 21:07 | 47.69784 | 16.17828 | 39400 ft | 419 kts | 22° |
| 2026-04-30 21:08 | 47.75222 | 16.20983 | 39400 ft | 419 kts | 22° |
| 2026-04-30 21:08 | 47.80656 | 16.24143 | 39396 ft | 419 kts | 22° |
| 2026-04-30 21:09 | 47.86077 | 16.27303 | 39395 ft | 418 kts | 22° |
| 2026-04-30 21:09 | 47.91492 | 16.30468 | 39391 ft | 418 kts | 22° |
| 2026-04-30 21:10 | 47.96905 | 16.33639 | 39398 ft | 418 kts | 22° |
| 2026-04-30 21:10 | 48.02316 | 16.36816 | 39405 ft | 417 kts | 22° |
| 2026-04-30 21:11 | 48.07718 | 16.39994 | 39409 ft | 417 kts | 22° |
| 2026-04-30 21:11 | 48.13115 | 16.43177 | 39408 ft | 417 kts | 22° |
| 2026-04-30 21:12 | 48.18421 | 16.46316 | 39407 ft | 416 kts | 22° |
| 2026-04-30 21:12 | 48.23809 | 16.49512 | 39405 ft | 416 kts | 22° |
| 2026-04-30 21:13 | 48.29183 | 16.52701 | 39408 ft | 415 kts | 22° |
| 2026-04-30 21:13 | 48.34553 | 16.55896 | 39406 ft | 415 kts | 22° |
| 2026-04-30 21:14 | 48.39921 | 16.59095 | 39398 ft | 415 kts | 22° |
| 2026-04-30 21:14 | 48.45280 | 16.62298 | 39403 ft | 414 kts | 23° |
| 2026-04-30 21:15 | 48.50640 | 16.65508 | 39399 ft | 414 kts | 23° |
| 2026-04-30 21:15 | 48.55987 | 16.68718 | 39400 ft | 413 kts | 23° |
| 2026-04-30 21:16 | 48.61080 | 16.71780 | 39392 ft | 413 kts | 23° |
| 2026-04-30 21:16 | 48.66417 | 16.74998 | 39400 ft | 412 kts | 23° |
| 2026-04-30 21:17 | 48.71675 | 16.79015 | 39402 ft | 412 kts | 33° |
| 2026-04-30 21:17 | 48.76183 | 16.84146 | 39398 ft | 412 kts | 42° |
| 2026-04-30 21:18 | 48.80200 | 16.90267 | 39392 ft | 412 kts | 45° |
| 2026-04-30 21:18 | 48.84193 | 16.96494 | 39390 ft | 411 kts | 45° |
| 2026-04-30 21:19 | 48.88184 | 17.02689 | 39391 ft | 411 kts | 45° |
| 2026-04-30 21:19 | 48.92178 | 17.08896 | 39395 ft | 411 kts | 45° |
| 2026-04-30 21:20 | 48.96172 | 17.15123 | 39394 ft | 411 kts | 45° |
| 2026-04-30 21:20 | 49.00190 | 17.21309 | 39396 ft | 410 kts | 42° |
| 2026-04-30 21:21 | 49.04619 | 17.26759 | 39393 ft | 409 kts | 34° |
| 2026-04-30 21:22 | 49.11857 | 17.33669 | 39398 ft | 409 kts | 31° |
| 2026-04-30 21:23 | 49.21488 | 17.42820 | 39404 ft | 409 kts | 31° |
| 2026-04-30 21:23 | 49.28676 | 17.49686 | 39405 ft | 409 kts | 31° |
| 2026-04-30 21:24 | 49.32685 | 17.53529 | 39403 ft | 408 kts | 31° |
| 2026-04-30 21:24 | 49.37499 | 17.58155 | 39395 ft | 407 kts | 31° |
| 2026-04-30 21:25 | 49.44684 | 17.65080 | 39393 ft | 406 kts | 31° |
| 2026-04-30 21:26 | 49.51774 | 17.71934 | 39396 ft | 406 kts | 31° |
| 2026-04-30 21:27 | 49.58935 | 17.78888 | 39405 ft | 406 kts | 31° |
| 2026-04-30 21:27 | 49.63592 | 17.83421 | 39406 ft | 406 kts | 31° |
| 2026-04-30 21:28 | 49.70827 | 17.90490 | 39413 ft | 406 kts | 31° |
| 2026-04-30 21:29 | 49.77922 | 17.97444 | 39414 ft | 406 kts | 31° |
| 2026-04-30 21:30 | 49.89823 | 18.09173 | 39413 ft | 406 kts | 31° |
| 2026-04-30 21:31 | 50.01227 | 18.21951 | 39405 ft | 407 kts | 46° |
| 2026-04-30 21:32 | 50.06184 | 18.32705 | 39400 ft | 408 kts | 53° |
| 2026-04-30 21:32 | 50.09380 | 18.40009 | 39400 ft | 408 kts | 53° |
| 2026-04-30 21:33 | 50.14326 | 18.50769 | 39403 ft | 406 kts | 47° |
| 2026-04-30 21:34 | 50.17993 | 18.57387 | 39399 ft | 405 kts | 47° |
| 2026-04-30 21:34 | 50.21577 | 18.63851 | 38268 ft | 403 kts | 46° |
| 2026-04-30 21:34 | 50.23524 | 18.67013 | 37211 ft | 405 kts | 41° |
| 2026-04-30 21:35 | 50.25672 | 18.69829 | 36293 ft | 401 kts | 37° |
| 2026-04-30 21:35 | 50.27869 | 18.72466 | 35388 ft | 396 kts | 37° |
| 2026-04-30 21:35 | 50.30060 | 18.75094 | 34262 ft | 397 kts | 37° |
| 2026-04-30 21:35 | 50.32250 | 18.77733 | 33153 ft | 396 kts | 38° |
| 2026-04-30 21:36 | 50.34403 | 18.80340 | 32618 ft | 381 kts | 38° |
| 2026-04-30 21:36 | 50.36227 | 18.82961 | 32341 ft | 362 kts | 48° |
| 2026-04-30 21:37 | 50.38945 | 18.93406 | 30660 ft | 344 kts | 79° |
| 2026-04-30 21:37 | 50.38954 | 18.97129 | 30107 ft | 339 kts | 83° |
| 2026-04-30 21:37 | 50.38906 | 19.00768 | 29408 ft | 335 kts | 82° |
| 2026-04-30 21:37 | 50.38863 | 19.04424 | 28646 ft | 332 kts | 82° |
| 2026-04-30 21:38 | 50.38831 | 19.08019 | 27891 ft | 328 kts | 82° |
| 2026-04-30 21:38 | 50.38806 | 19.11584 | 27087 ft | 327 kts | 82° |
| 2026-04-30 21:38 | 50.38785 | 19.15132 | 26355 ft | 324 kts | 82° |
| 2026-04-30 21:38 | 50.38767 | 19.18659 | 25626 ft | 322 kts | 82° |
| 2026-04-30 21:39 | 50.38749 | 19.22150 | 24890 ft | 319 kts | 82° |
| 2026-04-30 21:39 | 50.38727 | 19.25571 | 24548 ft | 305 kts | 82° |
| 2026-04-30 21:39 | 50.38700 | 19.28799 | 24385 ft | 287 kts | 82° |
| 2026-04-30 21:39 | 50.38677 | 19.31985 | 23980 ft | 277 kts | 82° |
| 2026-04-30 21:40 | 50.38663 | 19.34883 | 23399 ft | 275 kts | 82° |
| 2026-04-30 21:40 | 50.38652 | 19.37871 | 22771 ft | 275 kts | 82° |
| 2026-04-30 21:40 | 50.38642 | 19.40856 | 22171 ft | 273 kts | 82° |
| 2026-04-30 21:40 | 50.38632 | 19.43818 | 21578 ft | 271 kts | 81° |
| 2026-04-30 21:41 | 50.38927 | 19.46610 | 20788 ft | 253 kts | 63° |
| 2026-04-30 21:41 | 50.39848 | 19.48904 | 19705 ft | 248 kts | 43° |
| 2026-04-30 21:41 | 50.41231 | 19.50472 | 18660 ft | 247 kts | 25° |
| 2026-04-30 21:41 | 50.42897 | 19.51156 | 17652 ft | 251 kts | 7° |
| 2026-04-30 21:42 | 50.44641 | 19.50987 | 16679 ft | 256 kts | 349° |
| 2026-04-30 21:42 | 50.46219 | 19.49586 | 15681 ft | 270 kts | 322° |
| 2026-04-30 21:42 | 50.47245 | 19.47053 | 14721 ft | 284 kts | 294° |
| 2026-04-30 21:42 | 50.47600 | 19.43982 | 13813 ft | 289 kts | 279° |
| 2026-04-30 21:43 | 50.47633 | 19.40857 | 12966 ft | 286 kts | 274° |
| 2026-04-30 21:43 | 50.47565 | 19.37700 | 12019 ft | 283 kts | 272° |
| 2026-04-30 21:43 | 50.47418 | 19.34588 | 10586 ft | 294 kts | 268° |
| 2026-04-30 21:43 | 50.47225 | 19.31297 | 8641 ft | 312 kts | 270° |
| 2026-04-30 21:44 | 50.47157 | 19.27938 | 7289 ft | 301 kts | 272° |
| 2026-04-30 21:44 | 50.47167 | 19.24730 | 5899 ft | 289 kts | 276° |
| 2026-04-30 21:44 | 50.47375 | 19.21644 | 4200 ft | 286 kts | 275° |
| 2026-04-30 21:44 | 50.47398 | 19.18480 | 2769 ft | 280 kts | 272° |
| 2026-04-30 21:45 | 50.47473 | 19.15514 | 2044 ft | 253 kts | 275° |
| 2026-04-30 21:45 | 50.47578 | 19.12912 | 1644 ft | 222 kts | 272° |
| 2026-04-30 21:45 | 50.47603 | 19.10528 | 1098 ft | 209 kts | 268° |
| 2026-04-30 21:45 | 50.47599 | 19.08399 | 991 ft | 180 kts | 270° |
| 2026-04-30 21:46 | 50.47593 | 19.06824 | 987 ft | 94 kts | 271° |
| 2026-04-30 21:46 | 50.47609 | 19.06195 | 975 ft | 27 kts | 272° |
| 2026-04-30 21:46 | 50.47610 | 19.06135 | 974 ft | 0 kts | 272° |
| 2026-04-30 21:51 | 50.47604 | 19.06153 | 985 ft | 15 kts | 334° |
| 2026-04-30 21:52 | 50.47607 | 19.06306 | 979 ft | 15 kts | 91° |
| 2026-04-30 21:52 | 50.47605 | 19.06475 | 982 ft | 15 kts | 91° |
| 2026-04-30 21:52 | 50.47603 | 19.06645 | 982 ft | 15 kts | 91° |
| 2026-04-30 21:52 | 50.47602 | 19.06814 | 987 ft | 15 kts | 90° |
| 2026-04-30 21:53 | 50.47601 | 19.06976 | 988 ft | 8 kts | 90° |
| 2026-04-30 21:53 | 50.47574 | 19.07031 | 992 ft | 8 kts | 178° |
| 2026-04-30 21:53 | 50.47540 | 19.06996 | 985 ft | 12 kts | 242° |
| 2026-04-30 21:53 | 50.47503 | 19.06889 | 992 ft | 15 kts | 232° |
| 2026-04-30 21:54 | 50.47441 | 19.06880 | 982 ft | 5 kts | 130° |
| 2026-04-30 21:54 | 50.47430 | 19.06985 | 983 ft | 15 kts | 90° |
| 2026-04-30 21:54 | 50.47430 | 19.07155 | 987 ft | 15 kts | 90° |
| 2026-04-30 21:54 | 50.47430 | 19.07325 | 985 ft | 15 kts | 90° |
| 2026-04-30 21:55 | 50.47422 | 19.07438 | 986 ft | 10 kts | 146° |
| 2026-04-30 21:55 | 50.47346 | 19.07446 | 988 ft | 10 kts | 184° |
| 2026-04-30 21:55 | 50.47267 | 19.07441 | 986 ft | 13 kts | 173° |
| 2026-04-30 21:55 | 50.47234 | 19.07501 | 995 ft | 9 kts | 91° |
| 2026-04-30 21:56 | 50.47234 | 19.07665 | 992 ft | 15 kts | 90° |
| 2026-04-30 21:56 | 50.47233 | 19.07833 | 991 ft | 15 kts | 90° |
| 2026-04-30 21:56 | 50.47232 | 19.08003 | 994 ft | 15 kts | 90° |
| 2026-04-30 21:56 | 50.47232 | 19.08085 | 996 ft | 9 kts | 104° |
| 2026-04-30 21:57 | 50.47193 | 19.08104 | 992 ft | 7 kts | 178° |
| 2026-04-30 21:57 | 50.47151 | 19.08106 | 992 ft | 1 kts | 178° |
| 2026-04-30 21:57 | 50.47150 | 19.08106 | 992 ft | 0 kts | 178° |